Bay Roberts, Canada
Current Conditions -  °F | °C
As of 6:00 AM on Tuesday 21 Oct 2014 (Local Time) from CYYT Reporting Station
Scattered Clouds Scattered Clouds  
Wind Chill: 35°   Ceiling: Unl
Heat Index: 45°   Visibility: 15mi
Dew Point: 37°   Wind: 26mph
Humidity: 76%   Direction: 250°WSW
Pressure: 29.84"   Gusts: 36mph
Location:  47.58°N, 53.3°W
Report Text: CYYT 210800Z 25023G31KT 15SM SCT029 07/03 A2984 RMK CU3 SLP108
Loading
Personal Weather Stations






























Interactive Weather Map
Tropical Storm Tracking
New forecast layout! Learn more

10-Day Weather Forecast

Advertisements
Track Severe Weather on mobile